sensor_id;sensor_type;location;lat;lon;timestamp;P1;durP1;ratioP1;P2;durP2;ratioP2
5819;SDS011;2936;47.348;9.640;2024-02-26T00:00:12;2.08;;;1.98;;
5819;SDS011;2936;47.348;9.640;2024-02-26T00:02:41;2.00;;;1.90;;
5819;SDS011;2936;47.348;9.640;2024-02-26T00:05:10;1.75;;;1.75;;
5819;SDS011;2936;47.348;9.640;2024-02-26T00:07:37;1.70;;;1.70;;
5819;SDS011;2936;47.348;9.640;2024-02-26T00:10:05;1.67;;;1.67;;
5819;SDS011;2936;47.348;9.640;2024-02-26T00:12:33;1.90;;;1.90;;
5819;SDS011;2936;47.348;9.640;2024-02-26T00:15:01;2.20;;;1.85;;
5819;SDS011;2936;47.348;9.640;2024-02-26T00:17:29;1.70;;;1.70;;
5819;SDS011;2936;47.348;9.640;2024-02-26T00:19:56;1.60;;;1.60;;
5819;SDS011;2936;47.348;9.640;2024-02-26T00:22:27;1.80;;;1.80;;
5819;SDS011;2936;47.348;9.640;2024-02-26T00:24:55;1.80;;;1.80;;
5819;SDS011;2936;47.348;9.640;2024-02-26T00:27:22;1.80;;;1.80;;
5819;SDS011;2936;47.348;9.640;2024-02-26T00:29:49;1.80;;;1.80;;
5819;SDS011;2936;47.348;9.640;2024-02-26T00:32:17;1.90;;;1.90;;
5819;SDS011;2936;47.348;9.640;2024-02-26T00:34:45;2.22;;;2.08;;
5819;SDS011;2936;47.348;9.640;2024-02-26T00:37:13;1.77;;;1.77;;
5819;SDS011;2936;47.348;9.640;2024-02-26T00:39:42;1.80;;;1.80;;
5819;SDS011;2936;47.348;9.640;2024-02-26T00:42:10;1.60;;;1.60;;
5819;SDS011;2936;47.348;9.640;2024-02-26T00:44:37;1.80;;;1.80;;
5819;SDS011;2936;47.348;9.640;2024-02-26T00:47:05;1.70;;;1.70;;
5819;SDS011;2936;47.348;9.640;2024-02-26T00:49:32;1.80;;;1.80;;
5819;SDS011;2936;47.348;9.640;2024-02-26T00:52:00;1.70;;;1.70;;
5819;SDS011;2936;47.348;9.640;2024-02-26T00:54:27;1.60;;;1.60;;
5819;SDS011;2936;47.348;9.640;2024-02-26T00:56:57;1.80;;;1.80;;
5819;SDS011;2936;47.348;9.640;2024-02-26T00:59:24;1.80;;;1.80;;
5819;SDS011;2936;47.348;9.640;2024-02-26T01:01:52;1.70;;;1.70;;
5819;SDS011;2936;47.348;9.640;2024-02-26T01:04:21;1.70;;;1.70;;
5819;SDS011;2936;47.348;9.640;2024-02-26T01:06:49;1.70;;;1.70;;
5819;SDS011;2936;47.348;9.640;2024-02-26T01:09:16;1.70;;;1.70;;
5819;SDS011;2936;47.348;9.640;2024-02-26T01:11:44;1.70;;;1.70;;
5819;SDS011;2936;47.348;9.640;2024-02-26T01:14:13;1.75;;;1.75;;
5819;SDS011;2936;47.348;9.640;2024-02-26T01:16:41;1.60;;;1.60;;
5819;SDS011;2936;47.348;9.640;2024-02-26T01:19:09;1.60;;;1.60;;
5819;SDS011;2936;47.348;9.640;2024-02-26T01:21:36;1.80;;;1.80;;
5819;SDS011;2936;47.348;9.640;2024-02-26T01:24:05;1.70;;;1.70;;
5819;SDS011;2936;47.348;9.640;2024-02-26T01:26:33;1.73;;;1.73;;
5819;SDS011;2936;47.348;9.640;2024-02-26T01:29:00;1.70;;;1.70;;
5819;SDS011;2936;47.348;9.640;2024-02-26T01:31:29;1.70;;;1.70;;
5819;SDS011;2936;47.348;9.640;2024-02-26T01:33:57;1.80;;;1.80;;
5819;SDS011;2936;47.348;9.640;2024-02-26T01:36:25;1.90;;;1.80;;
5819;SDS011;2936;47.348;9.640;2024-02-26T01:38:53;1.80;;;1.80;;
5819;SDS011;2936;47.348;9.640;2024-02-26T01:41:20;2.22;;;2.13;;
5819;SDS011;2936;47.348;9.640;2024-02-26T01:43:48;1.60;;;1.60;;
5819;SDS011;2936;47.348;9.640;2024-02-26T01:46:15;1.70;;;1.70;;
5819;SDS011;2936;47.348;9.640;2024-02-26T01:48:45;1.85;;;1.85;;
5819;SDS011;2936;47.348;9.640;2024-02-26T01:51:15;1.70;;;1.70;;
5819;SDS011;2936;47.348;9.640;2024-02-26T01:53:43;2.10;;;2.00;;
5819;SDS011;2936;47.348;9.640;2024-02-26T01:56:11;1.70;;;1.70;;
5819;SDS011;2936;47.348;9.640;2024-02-26T01:58:39;1.60;;;1.60;;
5819;SDS011;2936;47.348;9.640;2024-02-26T02:01:06;1.80;;;1.80;;
5819;SDS011;2936;47.348;9.640;2024-02-26T02:03:35;1.75;;;1.75;;
5819;SDS011;2936;47.348;9.640;2024-02-26T02:06:05;1.70;;;1.70;;
5819;SDS011;2936;47.348;9.640;2024-02-26T02:08:33;1.80;;;1.80;;
5819;SDS011;2936;47.348;9.640;2024-02-26T02:11:02;1.70;;;1.70;;
5819;SDS011;2936;47.348;9.640;2024-02-26T02:13:29;1.70;;;1.70;;
5819;SDS011;2936;47.348;9.640;2024-02-26T02:15:57;1.75;;;1.75;;
5819;SDS011;2936;47.348;9.640;2024-02-26T02:18:24;1.63;;;1.63;;
5819;SDS011;2936;47.348;9.640;2024-02-26T02:20:54;1.60;;;1.60;;
5819;SDS011;2936;47.348;9.640;2024-02-26T02:23:24;1.70;;;1.70;;
5819;SDS011;2936;47.348;9.640;2024-02-26T02:25:52;1.70;;;1.70;;
5819;SDS011;2936;47.348;9.640;2024-02-26T02:28:20;1.70;;;1.70;;
5819;SDS011;2936;47.348;9.640;2024-02-26T02:30:48;1.90;;;1.90;;
5819;SDS011;2936;47.348;9.640;2024-02-26T02:33:16;1.70;;;1.70;;
5819;SDS011;2936;47.348;9.640;2024-02-26T02:35:43;1.70;;;1.70;;
5819;SDS011;2936;47.348;9.640;2024-02-26T02:38:13;1.60;;;1.60;;
5819;SDS011;2936;47.348;9.640;2024-02-26T02:40:41;1.60;;;1.60;;
5819;SDS011;2936;47.348;9.640;2024-02-26T02:43:08;1.60;;;1.60;;
5819;SDS011;2936;47.348;9.640;2024-02-26T02:45:36;1.70;;;1.70;;
5819;SDS011;2936;47.348;9.640;2024-02-26T02:48:04;1.50;;;1.50;;
5819;SDS011;2936;47.348;9.640;2024-02-26T02:50:32;1.50;;;1.50;;
5819;SDS011;2936;47.348;9.640;2024-02-26T02:53:00;1.60;;;1.60;;
5819;SDS011;2936;47.348;9.640;2024-02-26T02:55:29;1.55;;;1.55;;
5819;SDS011;2936;47.348;9.640;2024-02-26T02:57:56;1.70;;;1.70;;
5819;SDS011;2936;47.348;9.640;2024-02-26T03:00:24;1.80;;;1.80;;
5819;SDS011;2936;47.348;9.640;2024-02-26T03:02:52;1.70;;;1.70;;
5819;SDS011;2936;47.348;9.640;2024-02-26T03:05:20;1.60;;;1.60;;
5819;SDS011;2936;47.348;9.640;2024-02-26T03:07:48;1.58;;;1.58;;
5819;SDS011;2936;47.348;9.640;2024-02-26T03:10:15;1.50;;;1.50;;
5819;SDS011;2936;47.348;9.640;2024-02-26T03:12:45;1.80;;;1.80;;
5819;SDS011;2936;47.348;9.640;2024-02-26T03:15:13;1.63;;;1.63;;
5819;SDS011;2936;47.348;9.640;2024-02-26T03:17:39;1.83;;;1.83;;
5819;SDS011;2936;47.348;9.640;2024-02-26T03:20:08;1.80;;;1.80;;
5819;SDS011;2936;47.348;9.640;2024-02-26T03:22:38;1.85;;;1.85;;
5819;SDS011;2936;47.348;9.640;2024-02-26T03:25:05;1.70;;;1.70;;
5819;SDS011;2936;47.348;9.640;2024-02-26T03:27:33;1.65;;;1.65;;
5819;SDS011;2936;47.348;9.640;2024-02-26T03:30:03;1.70;;;1.70;;
5819;SDS011;2936;47.348;9.640;2024-02-26T03:32:31;1.70;;;1.70;;
5819;SDS011;2936;47.348;9.640;2024-02-26T03:34:59;1.80;;;1.70;;
5819;SDS011;2936;47.348;9.640;2024-02-26T03:37:27;1.67;;;1.67;;
5819;SDS011;2936;47.348;9.640;2024-02-26T03:39:55;1.70;;;1.70;;
5819;SDS011;2936;47.348;9.640;2024-02-26T03:42:23;1.77;;;1.77;;
5819;SDS011;2936;47.348;9.640;2024-02-26T03:44:50;1.60;;;1.60;;
5819;SDS011;2936;47.348;9.640;2024-02-26T03:47:20;1.70;;;1.70;;
5819;SDS011;2936;47.348;9.640;2024-02-26T03:49:48;1.70;;;1.70;;
5819;SDS011;2936;47.348;9.640;2024-02-26T03:52:16;1.60;;;1.60;;
5819;SDS011;2936;47.348;9.640;2024-02-26T03:54:44;1.60;;;1.60;;
5819;SDS011;2936;47.348;9.640;2024-02-26T03:57:13;1.70;;;1.70;;
5819;SDS011;2936;47.348;9.640;2024-02-26T03:59:40;2.05;;;1.95;;
5819;SDS011;2936;47.348;9.640;2024-02-26T04:02:08;1.98;;;1.90;;
5819;SDS011;2936;47.348;9.640;2024-02-26T04:04:37;1.70;;;1.70;;
5819;SDS011;2936;47.348;9.640;2024-02-26T04:07:05;1.83;;;1.83;;
5819;SDS011;2936;47.348;9.640;2024-02-26T04:09:32;1.77;;;1.77;;
5819;SDS011;2936;47.348;9.640;2024-02-26T04:12:00;1.60;;;1.60;;
5819;SDS011;2936;47.348;9.640;2024-02-26T04:14:28;1.70;;;1.70;;
5819;SDS011;2936;47.348;9.640;2024-02-26T04:16:56;1.80;;;1.80;;
5819;SDS011;2936;47.348;9.640;2024-02-26T04:19:24;1.75;;;1.75;;
5819;SDS011;2936;47.348;9.640;2024-02-26T04:21:53;1.70;;;1.70;;
5819;SDS011;2936;47.348;9.640;2024-02-26T04:24:23;2.00;;;1.90;;
5819;SDS011;2936;47.348;9.640;2024-02-26T04:26:50;2.28;;;2.15;;
5819;SDS011;2936;47.348;9.640;2024-02-26T04:29:18;2.75;;;2.25;;
5819;SDS011;2936;47.348;9.640;2024-02-26T04:31:46;2.45;;;2.35;;
5819;SDS011;2936;47.348;9.640;2024-02-26T04:34:13;2.97;;;2.80;;
5819;SDS011;2936;47.348;9.640;2024-02-26T04:36:41;2.50;;;2.40;;
5819;SDS011;2936;47.348;9.640;2024-02-26T04:39:10;2.92;;;2.60;;
5819;SDS011;2936;47.348;9.640;2024-02-26T04:41:38;2.50;;;2.40;;
5819;SDS011;2936;47.348;9.640;2024-02-26T04:44:06;3.63;;;2.45;;
5819;SDS011;2936;47.348;9.640;2024-02-26T04:46:33;2.28;;;2.17;;
5819;SDS011;2936;47.348;9.640;2024-02-26T04:49:01;2.88;;;2.78;;
5819;SDS011;2936;47.348;9.640;2024-02-26T04:51:28;2.33;;;2.22;;
5819;SDS011;2936;47.348;9.640;2024-02-26T04:53:56;2.65;;;2.55;;
5819;SDS011;2936;47.348;9.640;2024-02-26T04:56:25;2.80;;;2.60;;
5819;SDS011;2936;47.348;9.640;2024-02-26T04:58:54;2.38;;;2.28;;
5819;SDS011;2936;47.348;9.640;2024-02-26T05:01:21;1.80;;;1.80;;
5819;SDS011;2936;47.348;9.640;2024-02-26T05:03:49;3.20;;;1.98;;
5819;SDS011;2936;47.348;9.640;2024-02-26T05:06:19;1.80;;;1.80;;
5819;SDS011;2936;47.348;9.640;2024-02-26T05:08:48;1.70;;;1.70;;
5819;SDS011;2936;47.348;9.640;2024-02-26T05:11:16;1.73;;;1.73;;
5819;SDS011;2936;47.348;9.640;2024-02-26T05:13:45;1.70;;;1.70;;
5819;SDS011;2936;47.348;9.640;2024-02-26T05:16:12;1.70;;;1.70;;
5819;SDS011;2936;47.348;9.640;2024-02-26T05:18:40;1.70;;;1.70;;
5819;SDS011;2936;47.348;9.640;2024-02-26T05:21:07;1.98;;;1.92;;
5819;SDS011;2936;47.348;9.640;2024-02-26T05:23:37;1.70;;;1.70;;
5819;SDS011;2936;47.348;9.640;2024-02-26T05:26:05;2.90;;;1.90;;
5819;SDS011;2936;47.348;9.640;2024-02-26T05:28:33;2.00;;;2.00;;
5819;SDS011;2936;47.348;9.640;2024-02-26T05:31:04;2.00;;;1.95;;
5819;SDS011;2936;47.348;9.640;2024-02-26T05:33:31;1.98;;;1.90;;
5819;SDS011;2936;47.348;9.640;2024-02-26T05:35:59;1.83;;;1.83;;
5819;SDS011;2936;47.348;9.640;2024-02-26T05:38:29;4.53;;;2.22;;
5819;SDS011;2936;47.348;9.640;2024-02-26T05:40:57;1.65;;;1.65;;
5819;SDS011;2936;47.348;9.640;2024-02-26T05:43:25;1.80;;;1.80;;
5819;SDS011;2936;47.348;9.640;2024-02-26T05:45:53;1.70;;;1.70;;
5819;SDS011;2936;47.348;9.640;2024-02-26T05:48:22;2.10;;;2.00;;
5819;SDS011;2936;47.348;9.640;2024-02-26T05:50:50;1.80;;;1.80;;
5819;SDS011;2936;47.348;9.640;2024-02-26T05:53:18;2.05;;;1.88;;
5819;SDS011;2936;47.348;9.640;2024-02-26T05:55:45;4.70;;;2.10;;
5819;SDS011;2936;47.348;9.640;2024-02-26T05:58:12;1.80;;;1.80;;
5819;SDS011;2936;47.348;9.640;2024-02-26T06:00:40;1.60;;;1.60;;
5819;SDS011;2936;47.348;9.640;2024-02-26T06:03:09;2.00;;;1.92;;
5819;SDS011;2936;47.348;9.640;2024-02-26T06:05:38;1.73;;;1.73;;
5819;SDS011;2936;47.348;9.640;2024-02-26T06:08:06;2.13;;;1.98;;
5819;SDS011;2936;47.348;9.640;2024-02-26T06:10:33;1.80;;;1.80;;
5819;SDS011;2936;47.348;9.640;2024-02-26T06:13:01;1.70;;;1.70;;
5819;SDS011;2936;47.348;9.640;2024-02-26T06:15:29;1.80;;;1.80;;
5819;SDS011;2936;47.348;9.640;2024-02-26T06:17:56;2.45;;;2.35;;
5819;SDS011;2936;47.348;9.640;2024-02-26T06:20:24;2.60;;;2.50;;
5819;SDS011;2936;47.348;9.640;2024-02-26T06:22:53;2.80;;;2.70;;
5819;SDS011;2936;47.348;9.640;2024-02-26T06:25:21;2.60;;;2.50;;
5819;SDS011;2936;47.348;9.640;2024-02-26T06:27:49;3.25;;;3.05;;
5819;SDS011;2936;47.348;9.640;2024-02-26T06:30:19;3.50;;;3.28;;
5819;SDS011;2936;47.348;9.640;2024-02-26T06:32:47;3.95;;;3.00;;
5819;SDS011;2936;47.348;9.640;2024-02-26T06:35:14;12.10;;;3.30;;
5819;SDS011;2936;47.348;9.640;2024-02-26T06:37:42;3.17;;;2.97;;
5819;SDS011;2936;47.348;9.640;2024-02-26T06:40:12;2.97;;;2.88;;
5819;SDS011;2936;47.348;9.640;2024-02-26T06:42:40;2.90;;;2.80;;
5819;SDS011;2936;47.348;9.640;2024-02-26T06:45:09;10.13;;;3.05;;
5819;SDS011;2936;47.348;9.640;2024-02-26T06:47:36;3.45;;;3.25;;
5819;SDS011;2936;47.348;9.640;2024-02-26T06:50:05;3.50;;;3.30;;
5819;SDS011;2936;47.348;9.640;2024-02-26T06:52:32;4.25;;;3.83;;
5819;SDS011;2936;47.348;9.640;2024-02-26T06:55:00;8.52;;;3.40;;
5819;SDS011;2936;47.348;9.640;2024-02-26T06:57:29;3.67;;;3.40;;
5819;SDS011;2936;47.348;9.640;2024-02-26T06:59:57;2.40;;;2.30;;
5819;SDS011;2936;47.348;9.640;2024-02-26T07:02:24;17.42;;;3.53;;
5819;SDS011;2936;47.348;9.640;2024-02-26T07:04:53;2.90;;;2.70;;
5819;SDS011;2936;47.348;9.640;2024-02-26T07:07:22;2.80;;;2.70;;
5819;SDS011;2936;47.348;9.640;2024-02-26T07:09:50;3.03;;;2.92;;
5819;SDS011;2936;47.348;9.640;2024-02-26T07:12:17;3.67;;;3.28;;
5819;SDS011;2936;47.348;9.640;2024-02-26T07:14:48;2.65;;;2.55;;
5819;SDS011;2936;47.348;9.640;2024-02-26T07:17:16;2.30;;;2.20;;
5819;SDS011;2936;47.348;9.640;2024-02-26T07:19:43;3.38;;;3.08;;
5819;SDS011;2936;47.348;9.640;2024-02-26T07:22:11;6.65;;;3.13;;
5819;SDS011;2936;47.348;9.640;2024-02-26T07:24:39;3.47;;;3.00;;
5819;SDS011;2936;47.348;9.640;2024-02-26T07:27:06;2.75;;;2.65;;
5819;SDS011;2936;47.348;9.640;2024-02-26T07:29:34;2.55;;;2.45;;
5819;SDS011;2936;47.348;9.640;2024-02-26T07:32:03;2.80;;;2.70;;
5819;SDS011;2936;47.348;9.640;2024-02-26T07:34:30;2.95;;;2.85;;
5819;SDS011;2936;47.348;9.640;2024-02-26T07:36:58;2.90;;;2.80;;
5819;SDS011;2936;47.348;9.640;2024-02-26T07:39:25;3.40;;;3.10;;
5819;SDS011;2936;47.348;9.640;2024-02-26T07:41:53;2.72;;;2.63;;
5819;SDS011;2936;47.348;9.640;2024-02-26T07:44:21;3.28;;;3.17;;
5819;SDS011;2936;47.348;9.640;2024-02-26T07:46:49;2.80;;;2.70;;
5819;SDS011;2936;47.348;9.640;2024-02-26T07:49:17;2.75;;;2.55;;
5819;SDS011;2936;47.348;9.640;2024-02-26T07:51:45;5.20;;;3.00;;
5819;SDS011;2936;47.348;9.640;2024-02-26T07:54:12;2.58;;;2.47;;
5819;SDS011;2936;47.348;9.640;2024-02-26T07:56:41;2.65;;;2.55;;
5819;SDS011;2936;47.348;9.640;2024-02-26T07:59:09;3.10;;;3.00;;
5819;SDS011;2936;47.348;9.640;2024-02-26T08:01:36;2.92;;;2.83;;
5819;SDS011;2936;47.348;9.640;2024-02-26T08:04:06;3.45;;;3.25;;
5819;SDS011;2936;47.348;9.640;2024-02-26T08:06:35;2.97;;;2.80;;
5819;SDS011;2936;47.348;9.640;2024-02-26T08:09:03;3.40;;;3.30;;
5819;SDS011;2936;47.348;9.640;2024-02-26T08:11:32;3.42;;;3.25;;
5819;SDS011;2936;47.348;9.640;2024-02-26T08:13:59;75.88;;;8.65;;
5819;SDS011;2936;47.348;9.640;2024-02-26T08:16:30;3.05;;;2.85;;
5819;SDS011;2936;47.348;9.640;2024-02-26T08:18:58;4.97;;;3.17;;
5819;SDS011;2936;47.348;9.640;2024-02-26T08:21:25;2.85;;;2.75;;
5819;SDS011;2936;47.348;9.640;2024-02-26T08:23:56;3.20;;;3.00;;
5819;SDS011;2936;47.348;9.640;2024-02-26T08:26:23;3.03;;;2.88;;
5819;SDS011;2936;47.348;9.640;2024-02-26T08:28:51;39.38;;;4.00;;
5819;SDS011;2936;47.348;9.640;2024-02-26T08:31:20;3.50;;;3.30;;
5819;SDS011;2936;47.348;9.640;2024-02-26T08:33:49;2.67;;;2.55;;
5819;SDS011;2936;47.348;9.640;2024-02-26T08:36:16;2.78;;;2.53;;
5819;SDS011;2936;47.348;9.640;2024-02-26T08:38:44;2.72;;;2.63;;
5819;SDS011;2936;47.348;9.640;2024-02-26T08:41:13;3.28;;;2.97;;
5819;SDS011;2936;47.348;9.640;2024-02-26T08:43:40;2.90;;;2.75;;
5819;SDS011;2936;47.348;9.640;2024-02-26T08:46:08;2.80;;;2.60;;
5819;SDS011;2936;47.348;9.640;2024-02-26T08:48:37;3.20;;;2.97;;
5819;SDS011;2936;47.348;9.640;2024-02-26T08:51:06;2.72;;;2.42;;
5819;SDS011;2936;47.348;9.640;2024-02-26T08:53:33;2.75;;;2.65;;
5819;SDS011;2936;47.348;9.640;2024-02-26T08:56:01;11.73;;;3.13;;
5819;SDS011;2936;47.348;9.640;2024-02-26T08:58:30;2.47;;;2.38;;
5819;SDS011;2936;47.348;9.640;2024-02-26T09:00:58;4.25;;;3.13;;
5819;SDS011;2936;47.348;9.640;2024-02-26T09:03:25;2.83;;;2.72;;
5819;SDS011;2936;47.348;9.640;2024-02-26T09:05:53;2.63;;;2.53;;
5819;SDS011;2936;47.348;9.640;2024-02-26T09:08:22;2.40;;;2.30;;
5819;SDS011;2936;47.348;9.640;2024-02-26T09:10:51;2.88;;;2.78;;
5819;SDS011;2936;47.348;9.640;2024-02-26T09:13:19;4.10;;;3.78;;
5819;SDS011;2936;47.348;9.640;2024-02-26T09:15:48;2.92;;;2.72;;
5819;SDS011;2936;47.348;9.640;2024-02-26T09:18:16;4.97;;;2.60;;
5819;SDS011;2936;47.348;9.640;2024-02-26T09:20:44;3.17;;;2.97;;
5819;SDS011;2936;47.348;9.640;2024-02-26T09:23:11;5.78;;;3.95;;
5819;SDS011;2936;47.348;9.640;2024-02-26T09:25:39;4.70;;;3.65;;
5819;SDS011;2936;47.348;9.640;2024-02-26T09:28:07;2.90;;;2.80;;
5819;SDS011;2936;47.348;9.640;2024-02-26T09:30:34;3.53;;;3.05;;
5819;SDS011;2936;47.348;9.640;2024-02-26T09:33:05;2.83;;;2.72;;
5819;SDS011;2936;47.348;9.640;2024-02-26T09:35:33;2.90;;;2.80;;
5819;SDS011;2936;47.348;9.640;2024-02-26T09:38:00;3.05;;;2.95;;
5819;SDS011;2936;47.348;9.640;2024-02-26T09:40:28;3.90;;;2.70;;
5819;SDS011;2936;47.348;9.640;2024-02-26T09:42:59;4.07;;;3.28;;
5819;SDS011;2936;47.348;9.640;2024-02-26T09:45:27;3.85;;;3.13;;
5819;SDS011;2936;47.348;9.640;2024-02-26T09:47:56;3.72;;;3.03;;
5819;SDS011;2936;47.348;9.640;2024-02-26T09:50:26;3.20;;;3.00;;
5819;SDS011;2936;47.348;9.640;2024-02-26T09:53:02;6.47;;;2.88;;
5819;SDS011;2936;47.348;9.640;2024-02-26T09:55:33;3.05;;;2.95;;
5819;SDS011;2936;47.348;9.640;2024-02-26T09:58:01;3.85;;;3.00;;
5819;SDS011;2936;47.348;9.640;2024-02-26T10:00:30;3.22;;;2.92;;
5819;SDS011;2936;47.348;9.640;2024-02-26T10:02:59;2.83;;;2.72;;
5819;SDS011;2936;47.348;9.640;2024-02-26T10:05:31;4.03;;;3.33;;
5819;SDS011;2936;47.348;9.640;2024-02-26T10:07:59;2.90;;;2.80;;
5819;SDS011;2936;47.348;9.640;2024-02-26T10:10:26;5.88;;;3.30;;
5819;SDS011;2936;47.348;9.640;2024-02-26T10:12:56;19.90;;;5.13;;
5819;SDS011;2936;47.348;9.640;2024-02-26T10:15:24;6.78;;;5.20;;
5819;SDS011;2936;47.348;9.640;2024-02-26T10:17:52;7.78;;;4.97;;
5819;SDS011;2936;47.348;9.640;2024-02-26T10:20:20;12.10;;;4.70;;
5819;SDS011;2936;47.348;9.640;2024-02-26T10:22:50;9.32;;;4.60;;
5819;SDS011;2936;47.348;9.640;2024-02-26T10:25:17;4.28;;;3.97;;
5819;SDS011;2936;47.348;9.640;2024-02-26T10:27:45;9.48;;;4.47;;
5819;SDS011;2936;47.348;9.640;2024-02-26T10:30:15;3.97;;;3.58;;
5819;SDS011;2936;47.348;9.640;2024-02-26T10:32:44;5.03;;;3.30;;
5819;SDS011;2936;47.348;9.640;2024-02-26T10:35:12;25.02;;;4.47;;
5819;SDS011;2936;47.348;9.640;2024-02-26T10:37:41;4.28;;;3.92;;
5819;SDS011;2936;47.348;9.640;2024-02-26T10:40:12;4.28;;;4.07;;
5819;SDS011;2936;47.348;9.640;2024-02-26T10:42:40;3.33;;;3.20;;
5819;SDS011;2936;47.348;9.640;2024-02-26T10:45:07;3.65;;;3.35;;
5819;SDS011;2936;47.348;9.640;2024-02-26T10:47:35;4.18;;;3.75;;
5819;SDS011;2936;47.348;9.640;2024-02-26T10:50:04;7.72;;;3.95;;
5819;SDS011;2936;47.348;9.640;2024-02-26T10:52:33;5.35;;;3.70;;
5819;SDS011;2936;47.348;9.640;2024-02-26T10:55:01;3.50;;;3.20;;
5819;SDS011;2936;47.348;9.640;2024-02-26T10:57:31;3.53;;;3.25;;
5819;SDS011;2936;47.348;9.640;2024-02-26T11:00:00;3.20;;;3.00;;
5819;SDS011;2936;47.348;9.640;2024-02-26T11:02:30;3.35;;;3.15;;
5819;SDS011;2936;47.348;9.640;2024-02-26T11:04:58;3.20;;;3.00;;
5819;SDS011;2936;47.348;9.640;2024-02-26T11:07:26;3.63;;;3.38;;
5819;SDS011;2936;47.348;9.640;2024-02-26T11:09:56;5.32;;;3.05;;
5819;SDS011;2936;47.348;9.640;2024-02-26T11:12:24;2.90;;;2.80;;
5819;SDS011;2936;47.348;9.640;2024-02-26T11:14:54;2.95;;;2.85;;
5819;SDS011;2936;47.348;9.640;2024-02-26T11:17:23;2.65;;;2.55;;
5819;SDS011;2936;47.348;9.640;2024-02-26T11:19:53;3.20;;;3.00;;
5819;SDS011;2936;47.348;9.640;2024-02-26T11:22:23;4.05;;;3.75;;
5819;SDS011;2936;47.348;9.640;2024-02-26T11:24:51;3.53;;;3.33;;
5819;SDS011;2936;47.348;9.640;2024-02-26T11:27:19;8.30;;;4.30;;
5819;SDS011;2936;47.348;9.640;2024-02-26T11:29:49;3.00;;;2.80;;
5819;SDS011;2936;47.348;9.640;2024-02-26T11:32:20;3.25;;;3.15;;
5819;SDS011;2936;47.348;9.640;2024-02-26T11:34:48;4.18;;;3.90;;
5819;SDS011;2936;47.348;9.640;2024-02-26T11:37:16;3.55;;;3.45;;
5819;SDS011;2936;47.348;9.640;2024-02-26T11:39:45;4.07;;;3.88;;
5819;SDS011;2936;47.348;9.640;2024-02-26T11:42:13;20.95;;;5.32;;
5819;SDS011;2936;47.348;9.640;2024-02-26T11:44:41;5.53;;;4.25;;
5819;SDS011;2936;47.348;9.640;2024-02-26T11:47:12;4.50;;;4.10;;
5819;SDS011;2936;47.348;9.640;2024-02-26T11:49:44;5.63;;;3.97;;
5819;SDS011;2936;47.348;9.640;2024-02-26T11:52:12;4.57;;;4.35;;
5819;SDS011;2936;47.348;9.640;2024-02-26T11:54:43;5.88;;;4.25;;
5819;SDS011;2936;47.348;9.640;2024-02-26T11:57:19;4.60;;;4.30;;
5819;SDS011;2936;47.348;9.640;2024-02-26T11:59:47;3.67;;;3.50;;
5819;SDS011;2936;47.348;9.640;2024-02-26T12:05:00;5.57;;;4.15;;
5819;SDS011;2936;47.348;9.640;2024-02-26T12:07:28;3.95;;;3.75;;
5819;SDS011;2936;47.348;9.640;2024-02-26T12:12:38;21.42;;;4.80;;
5819;SDS011;2936;47.348;9.640;2024-02-26T12:15:07;9.20;;;4.70;;
5819;SDS011;2936;47.348;9.640;2024-02-26T12:17:36;4.57;;;4.03;;
5819;SDS011;2936;47.348;9.640;2024-02-26T12:20:12;6.45;;;4.28;;
5819;SDS011;2936;47.348;9.640;2024-02-26T12:22:40;18.70;;;5.00;;
5819;SDS011;2936;47.348;9.640;2024-02-26T12:25:08;4.28;;;4.07;;
5819;SDS011;2936;47.348;9.640;2024-02-26T12:27:36;5.68;;;4.40;;
5819;SDS011;2936;47.348;9.640;2024-02-26T12:30:04;4.68;;;4.28;;
5819;SDS011;2936;47.348;9.640;2024-02-26T12:32:32;4.60;;;4.30;;
5819;SDS011;2936;47.348;9.640;2024-02-26T12:34:59;5.35;;;4.60;;
5819;SDS011;2936;47.348;9.640;2024-02-26T12:37:28;5.65;;;3.88;;
5819;SDS011;2936;47.348;9.640;2024-02-26T12:39:56;5.22;;;4.88;;
5819;SDS011;2936;47.348;9.640;2024-02-26T12:42:23;8.30;;;5.30;;
5819;SDS011;2936;47.348;9.640;2024-02-26T12:44:51;5.60;;;5.10;;
5819;SDS011;2936;47.348;9.640;2024-02-26T12:47:19;38.85;;;4.55;;
5819;SDS011;2936;47.348;9.640;2024-02-26T12:49:47;18.67;;;5.68;;
5819;SDS011;2936;47.348;9.640;2024-02-26T12:52:15;9.23;;;4.60;;
5819;SDS011;2936;47.348;9.640;2024-02-26T12:54:45;4.78;;;4.47;;
5819;SDS011;2936;47.348;9.640;2024-02-26T12:57:13;5.00;;;4.57;;
5819;SDS011;2936;47.348;9.640;2024-02-26T12:59:41;4.18;;;3.97;;
5819;SDS011;2936;47.348;9.640;2024-02-26T13:02:09;5.43;;;5.00;;
5819;SDS011;2936;47.348;9.640;2024-02-26T13:04:38;4.85;;;4.60;;
5819;SDS011;2936;47.348;9.640;2024-02-26T13:07:06;5.72;;;4.45;;
5819;SDS011;2936;47.348;9.640;2024-02-26T13:09:34;36.53;;;4.50;;
5819;SDS011;2936;47.348;9.640;2024-02-26T13:12:05;4.57;;;4.22;;
5819;SDS011;2936;47.348;9.640;2024-02-26T13:14:33;23.63;;;5.40;;
5819;SDS011;2936;47.348;9.640;2024-02-26T13:17:01;15.07;;;5.20;;
5819;SDS011;2936;47.348;9.640;2024-02-26T13:19:29;16.10;;;5.05;;
5819;SDS011;2936;47.348;9.640;2024-02-26T13:21:56;5.93;;;4.63;;
5819;SDS011;2936;47.348;9.640;2024-02-26T13:24:31;4.57;;;4.18;;
5819;SDS011;2936;47.348;9.640;2024-02-26T13:26:59;4.82;;;4.53;;
5819;SDS011;2936;47.348;9.640;2024-02-26T13:29:30;4.97;;;4.60;;
5819;SDS011;2936;47.348;9.640;2024-02-26T13:31:58;13.02;;;6.50;;
5819;SDS011;2936;47.348;9.640;2024-02-26T13:34:26;13.43;;;7.30;;
5819;SDS011;2936;47.348;9.640;2024-02-26T13:36:56;4.70;;;4.30;;
5819;SDS011;2936;47.348;9.640;2024-02-26T13:39:24;9.55;;;4.60;;
5819;SDS011;2936;47.348;9.640;2024-02-26T13:41:52;16.63;;;5.32;;
5819;SDS011;2936;47.348;9.640;2024-02-26T13:44:20;3.78;;;3.42;;
5819;SDS011;2936;47.348;9.640;2024-02-26T13:46:50;4.43;;;4.13;;
5819;SDS011;2936;47.348;9.640;2024-02-26T13:49:17;4.15;;;3.95;;
5819;SDS011;2936;47.348;9.640;2024-02-26T13:51:45;4.20;;;3.90;;
5819;SDS011;2936;47.348;9.640;2024-02-26T13:54:12;13.13;;;4.38;;
5819;SDS011;2936;47.348;9.640;2024-02-26T13:56:40;5.47;;;4.97;;
5819;SDS011;2936;47.348;9.640;2024-02-26T13:59:09;10.60;;;5.57;;
5819;SDS011;2936;47.348;9.640;2024-02-26T14:01:37;9.88;;;4.38;;
5819;SDS011;2936;47.348;9.640;2024-02-26T14:04:06;7.70;;;5.90;;
5819;SDS011;2936;47.348;9.640;2024-02-26T14:06:34;7.80;;;6.05;;
5819;SDS011;2936;47.348;9.640;2024-02-26T14:09:02;9.27;;;5.38;;
5819;SDS011;2936;47.348;9.640;2024-02-26T14:11:30;11.88;;;6.07;;
5819;SDS011;2936;47.348;9.640;2024-02-26T14:13:57;11.95;;;4.80;;
5819;SDS011;2936;47.348;9.640;2024-02-26T14:16:25;6.35;;;4.78;;
5819;SDS011;2936;47.348;9.640;2024-02-26T14:18:53;18.55;;;6.03;;
5819;SDS011;2936;47.348;9.640;2024-02-26T14:21:22;13.70;;;6.75;;
5819;SDS011;2936;47.348;9.640;2024-02-26T14:23:50;5.50;;;4.75;;
5819;SDS011;2936;47.348;9.640;2024-02-26T14:26:17;46.67;;;5.43;;
5819;SDS011;2936;47.348;9.640;2024-02-26T14:28:45;6.85;;;4.72;;
5819;SDS011;2936;47.348;9.640;2024-02-26T14:31:13;29.13;;;5.90;;
5819;SDS011;2936;47.348;9.640;2024-02-26T14:33:40;4.85;;;4.45;;
5819;SDS011;2936;47.348;9.640;2024-02-26T14:36:08;10.77;;;7.03;;
5819;SDS011;2936;47.348;9.640;2024-02-26T14:38:37;8.15;;;5.72;;
5819;SDS011;2936;47.348;9.640;2024-02-26T14:41:05;10.25;;;5.72;;
5819;SDS011;2936;47.348;9.640;2024-02-26T14:43:36;5.28;;;4.97;;
5819;SDS011;2936;47.348;9.640;2024-02-26T14:46:04;24.27;;;6.55;;
5819;SDS011;2936;47.348;9.640;2024-02-26T14:48:32;44.00;;;18.38;;
5819;SDS011;2936;47.348;9.640;2024-02-26T14:51:00;14.32;;;8.75;;
5819;SDS011;2936;47.348;9.640;2024-02-26T14:53:28;7.10;;;5.97;;
5819;SDS011;2936;47.348;9.640;2024-02-26T14:55:59;5.10;;;4.70;;
5819;SDS011;2936;47.348;9.640;2024-02-26T14:58:27;6.38;;;5.65;;
5819;SDS011;2936;47.348;9.640;2024-02-26T15:00:54;15.35;;;5.30;;
5819;SDS011;2936;47.348;9.640;2024-02-26T15:03:22;19.80;;;5.03;;
5819;SDS011;2936;47.348;9.640;2024-02-26T15:05:50;8.55;;;5.80;;
5819;SDS011;2936;47.348;9.640;2024-02-26T15:08:19;4.28;;;3.97;;
5819;SDS011;2936;47.348;9.640;2024-02-26T15:10:46;5.50;;;5.00;;
5819;SDS011;2936;47.348;9.640;2024-02-26T15:13:15;4.80;;;4.13;;
5819;SDS011;2936;47.348;9.640;2024-02-26T15:15:43;7.13;;;5.20;;
5819;SDS011;2936;47.348;9.640;2024-02-26T15:18:10;5.28;;;4.88;;
5819;SDS011;2936;47.348;9.640;2024-02-26T15:20:41;5.55;;;5.15;;
5819;SDS011;2936;47.348;9.640;2024-02-26T15:23:09;6.57;;;6.07;;
5819;SDS011;2936;47.348;9.640;2024-02-26T15:25:37;5.85;;;5.45;;